Time;durP1;ratioP1;P1;durP2;ratioP2;P2;SDS_P1;SDS_P2;PMS_P1;PMS_P2;Temp;Humidity;BMP_temperature;BMP_pressure;BME280_temperature;BME280_humidity;BME280_pressure;Samples;Min_cycle;Max_cycle;Signal;HPM_P1;HPM_P2
2021/03/09 00:00:42;;;;;;;;;;;102.50;1638.40;;;;;;5043980;28;20056;-78
2021/03/09 00:03:08;;;;;;;31.00;14.95;;;102.60;1638.40;;;;;;5043549;28;19962;-78
2021/03/09 00:05:34;;;;;;;;;;;102.80;1638.40;;;;;;5028192;28;20507;-79
2021/03/09 00:07:59;;;;;;;32.55;15.63;;;102.70;1638.40;;;;;;5026967;28;19912;-79
2021/03/09 00:10:25;;;;;;;31.27;16.13;;;102.80;1612.80;;;;;;5028634;28;20017;-79
2021/03/09 00:12:51;;;;;;;37.95;16.88;;;102.80;1612.80;;;;;;5031563;28;20389;-78
2021/03/09 00:15:16;;;;;;;29.98;15.75;;;102.70;1638.40;;;;;;5026160;28;20075;-78
2021/03/09 00:17:42;;;;;;;33.53;17.83;;;102.80;1612.80;;;;;;5030334;28;20025;-79
2021/03/09 00:20:08;;;;;;;;;;;102.80;1612.80;;;;;;5045688;28;20030;-78
2021/03/09 00:22:34;;;;;;;52.00;21.65;;;103.00;1612.80;;;;;;5045982;28;19905;-79
2021/03/09 00:25:00;;;;;;;60.50;27.08;;;103.20;1561.60;;;;;;5029453;28;20032;-78
2021/03/09 00:27:25;;;;;;;;;;;103.30;1536.00;;;;;;5048873;28;20036;-79
2021/03/09 00:29:51;;;;;;;53.17;25.77;;;128.10;1536.00;;;;;;5045417;28;19975;-78
2021/03/09 00:32:16;;;;;;;;;;;128.10;1561.60;;;;;;5048672;28;20032;-79
2021/03/09 00:34:42;;;;;;;63.70;25.25;;;128.20;1536.00;;;;;;5026689;28;19919;-78
2021/03/09 00:37:08;;;;;;;50.42;24.67;;;128.20;1536.00;;;;;;5051928;28;20056;-79
2021/03/09 00:39:33;;;;;;;52.85;24.52;;;128.20;1536.00;;;;;;5027808;28;20033;-78
2021/03/09 00:41:59;;;;;;;;;;;128.20;1536.00;;;;;;5047023;28;20065;-79
2021/03/09 00:44:25;;;;;;;48.08;24.15;;;128.20;1536.00;;;;;;5049520;28;19905;-78
2021/03/09 00:46:51;;;;;;;;;;;128.20;1536.00;;;;;;5047777;28;20033;-79
2021/03/09 00:49:17;;;;;;;54.90;24.23;;;128.50;1536.00;;;;;;5034707;28;19905;-79
2021/03/09 00:51:42;;;;;;;;;;;128.20;1536.00;;;;;;5046736;28;20503;-79
2021/03/09 00:54:09;;;;;;;44.78;21.17;;;128.00;1561.60;;;;;;5026450;28;19963;-79
2021/03/09 00:56:34;;;;;;;38.50;20.23;;;128.00;1561.60;;;;;;5043500;28;20496;-78
2021/03/09 00:59:00;;;;;;;41.80;21.42;;;103.30;1561.60;;;;;;5032706;28;20048;-79
2021/03/09 01:01:26;;;;;;;39.13;20.45;;;103.30;1536.00;;;;;;5034261;28;20055;-78
2021/03/09 01:03:52;;;;;;;35.85;19.33;;;103.20;1561.60;;;;;;5028249;28;20030;-79
2021/03/09 01:06:17;;;;;;;;;;;103.20;1561.60;;;;;;5051480;28;20021;-79
2021/03/09 01:08:43;;;;;;;38.13;18.58;;;103.20;1561.60;;;;;;5050428;28;19912;-78
2021/03/09 01:11:08;;;;;;;;;;;102.80;1612.80;;;;;;5060014;28;20031;-79
2021/03/09 01:13:34;;;;;;;47.75;20.83;;;77.70;1664.00;;;;;;5059797;28;19905;-79
2021/03/09 01:16:00;;;;;;;;;;;77.50;1689.60;;;;;;5047476;28;20069;-78
2021/03/09 01:18:26;;;;;;;38.20;18.67;;;77.30;1740.80;;;;;;5041635;28;19924;-79
2021/03/09 01:20:52;;;;;;;;;;;77.50;1715.20;;;;;;5041672;28;20473;-79
2021/03/09 01:23:17;;;;;;;32.92;17.90;;;77.50;1715.20;;;;;;5032313;28;19935;-79
2021/03/09 01:25:43;;;;;;;;;;;77.30;1740.80;;;;;;5043632;28;20025;-78
2021/03/09 01:28:10;;;;;;;34.78;17.10;;;77.20;1740.80;;;;;;5037824;28;20336;-79
2021/03/09 01:30:36;;;;;;;36.95;18.70;;;77.00;1766.40;;;;;;5020738;28;20034;-79
2021/03/09 01:33:02;;;;;;;37.55;18.50;;;76.80;1766.40;;;;;;5003080;28;20049;-80
2021/03/09 01:35:28;;;;;;;39.17;21.77;;;77.00;1766.40;;;;;;5011581;28;20041;-78
2021/03/09 01:37:54;;;;;;;41.65;21.30;;;77.00;1792.00;;;;;;5021726;28;20075;-79
2021/03/09 01:40:21;;;;;;;43.08;20.98;;;77.00;1766.40;;;;;;5038038;28;20021;-80
2021/03/09 01:42:47;;;;;;;43.50;22.08;;;77.00;1766.40;;;;;;5039310;28;20025;-80
2021/03/09 01:45:13;;;;;;;41.97;20.83;;;77.00;1766.40;;;;;;5020978;28;20040;-80
2021/03/09 01:47:42;;;;;;;46.17;20.95;;;77.10;1766.40;;;;;;5021318;28;20026;-79
2021/03/09 01:50:10;;;;;;;51.75;22.48;;;77.20;1766.40;;;;;;5021393;28;20032;-78
2021/03/09 01:52:35;;;;;;;47.58;22.70;;;77.40;1740.80;;;;;;5021391;28;20052;-79
2021/03/09 01:55:02;;;;;;;46.60;19.23;;;77.70;1689.60;;;;;;5021027;28;20489;-79
2021/03/09 01:57:28;;;;;;;37.75;19.77;;;102.40;1664.00;;;;;;5021845;28;20022;-79
2021/03/09 01:59:56;;;;;;;43.42;20.92;;;102.60;1638.40;;;;;;5023196;28;20128;-80
2021/03/09 02:02:21;;;;;;;49.58;23.75;;;102.70;1638.40;;;;;;5022416;28;20036;-78
2021/03/09 02:04:47;;;;;;;43.88;21.88;;;102.70;1638.40;;;;;;5024629;28;20128;-80
2021/03/09 02:07:13;;;;;;;37.05;18.80;;;102.80;1612.80;;;;;;5024186;28;20436;-79
2021/03/09 02:09:38;;;;;;;;;;;102.60;1638.40;;;;;;5023868;28;20389;-79
2021/03/09 02:12:23;;;;;;;28.13;15.30;;;77.70;1664.00;;;;;;5023755;28;20301;-79
2021/03/09 02:15:21;;;;;;;33.65;16.70;;;77.30;1689.60;;;;;;5022973;28;20057;-81
2021/03/09 02:17:54;;;;;;;;;;;77.00;1740.80;;;;;;4963948;28;20368;-79
2021/03/09 02:21:00;;;;;;;28.40;14.98;;;52.10;1792.00;;;;;;4965342;28;19910;-79
2021/03/09 02:23:41;;;;;;;33.70;17.13;;;51.90;1792.00;;;;;;4979178;28;20037;-79
2021/03/09 02:26:41;;;;;;;32.42;17.77;;;51.80;1843.20;;;;;;4961543;28;20027;-79
2021/03/09 02:29:33;;;;;;;31.38;16.95;;;51.90;1843.20;;;;;;4978281;28;20041;-79
2021/03/09 02:32:00;;;;;;;31.00;16.92;;;51.90;1843.20;;;;;;4962408;28;20082;-80
2021/03/09 02:34:31;;;;;;;32.85;18.02;;;52.00;1817.60;;;;;;4962034;28;20039;-79
2021/03/09 02:37:03;;;;;;;36.38;17.75;;;52.10;1792.00;;;;;;4961833;28;20108;-79
2021/03/09 02:39:30;;;;;;;37.38;19.77;;;52.10;1792.00;;;;;;4962633;28;20031;-80
2021/03/09 02:42:01;;;;;;;33.10;17.20;;;52.10;1792.00;;;;;;4962299;28;20546;-79
2021/03/09 02:44:29;;;;;;;41.72;17.95;;;52.10;1792.00;;;;;;4963045;28;20033;-79
2021/03/09 02:46:57;;;;;;;37.97;18.65;;;76.80;1792.00;;;;;;4978975;28;20039;-80
2021/03/09 02:49:27;;;;;;;39.22;18.35;;;52.10;1817.60;;;;;;4964323;28;20098;-82
2021/03/09 02:51:53;;;;;;;33.95;17.15;;;76.80;1792.00;;;;;;4965474;28;20038;-79
2021/03/09 02:54:21;;;;;;;33.30;17.40;;;76.80;1792.00;;;;;;5001598;28;20049;-83
2021/03/09 02:56:47;;;;;;;34.80;18.75;;;77.10;1766.40;;;;;;5045393;28;20048;-82
2021/03/09 02:59:15;;;;;;;34.38;17.40;;;77.10;1766.40;;;;;;5026744;28;20041;-83
2021/03/09 03:01:46;;;;;;;37.22;17.92;;;77.00;1766.40;;;;;;5028069;28;20032;-80
2021/03/09 03:04:18;;;;;;;42.90;18.45;;;77.00;1766.40;;;;;;5025243;28;20071;-80
2021/03/09 03:06:46;;;;;;;40.58;17.13;;;77.00;1792.00;;;;;;5027018;28;20112;-80
2021/03/09 03:09:17;;;;;;;30.40;15.80;;;76.90;1792.00;;;;;;5026354;28;20112;-80
2021/03/09 03:11:44;;;;;;;31.23;15.70;;;76.90;1792.00;;;;;;5026049;28;20037;-82
2021/03/09 03:14:11;;;;;;;29.83;14.98;;;76.80;1817.60;;;;;;5024520;28;20068;-80
2021/03/09 03:16:38;;;;;;;32.65;15.95;;;76.90;1792.00;;;;;;5025240;28;20031;-82
2021/03/09 03:19:08;;;;;;;29.30;15.95;;;77.00;1766.40;;;;;;5026423;28;20048;-82
2021/03/09 03:21:39;;;;;;;29.23;14.20;;;77.10;1766.40;;;;;;5027541;28;20055;-79
2021/03/09 03:24:07;;;;;;;33.25;14.23;;;77.10;1740.80;;;;;;5026740;28;20036;-82
2021/03/09 03:26:39;;;;;;;27.98;14.38;;;77.20;1740.80;;;;;;5027842;28;20389;-82
2021/03/09 03:29:06;;;;;;;34.28;14.73;;;77.10;1740.80;;;;;;5011186;28;20048;-80
2021/03/09 03:31:33;;;;;;;31.42;15.13;;;77.10;1715.20;;;;;;5026343;28;20026;-82
2021/03/09 03:33:59;;;;;;;24.88;13.18;;;77.30;1740.80;;;;;;5026247;28;20041;-81
2021/03/09 03:36:26;;;;;;;37.72;14.95;;;77.00;1740.80;;;;;;5010877;28;20029;-82
2021/03/09 03:38:54;;;;;;;30.63;13.35;;;76.80;1715.20;;;;;;5025875;28;20505;-79
2021/03/09 03:41:20;;;;;;;26.75;13.52;;;77.10;1689.60;;;;;;5022500;28;20034;-82
2021/03/09 03:43:46;;;;;;;33.35;15.23;;;77.30;1689.60;;;;;;5026988;28;20040;-79
2021/03/09 03:46:12;;;;;;;30.90;15.07;;;77.20;1689.60;;;;;;5025328;28;20029;-79
2021/03/09 03:48:38;;;;;;;32.78;16.38;;;77.00;1715.20;;;;;;5023822;28;20435;-81
2021/03/09 03:51:06;;;;;;;;;;;76.80;1766.40;;;;;;5019892;28;20028;-80
2021/03/09 03:54:09;;;;;;;19.80;9.63;;;76.90;1740.80;;;;;;5019584;28;19948;-81
2021/03/09 03:56:56;;;;;;;32.22;13.38;;;76.90;1740.80;;;;;;5019213;28;20037;-80
2021/03/09 03:59:31;;;;;;;25.40;12.13;;;77.00;1715.20;;;;;;5017940;28;20052;-80
2021/03/09 04:02:03;;;;;;;23.35;11.68;;;77.00;1715.20;;;;;;5019086;28;20025;-79
2021/03/09 04:04:30;;;;;;;25.05;12.15;;;76.80;1740.80;;;;;;5019731;28;20031;-80
2021/03/09 04:06:55;;;;;;;19.42;10.43;;;51.90;1766.40;;;;;;5018345;28;20026;-79
2021/03/09 04:09:24;;;;;;;22.35;11.75;;;51.80;1766.40;;;;;;5019171;28;20561;-79
2021/03/09 04:11:51;;;;;;;23.95;10.82;;;52.10;1740.80;;;;;;5019541;28;20042;-78
2021/03/09 04:14:17;;;;;;;19.48;11.07;;;76.90;1715.20;;;;;;5019122;28;20026;-79
2021/03/09 04:16:49;;;;;;;19.25;10.20;;;76.90;1715.20;;;;;;5018860;28;20029;-80
2021/03/09 04:19:16;;;;;;;24.23;13.80;;;77.00;1689.60;;;;;;5019759;28;20124;-79
2021/03/09 04:21:43;;;;;;;30.50;12.73;;;76.90;1689.60;;;;;;5019905;28;20033;-78
2021/03/09 04:24:13;;;;;;;23.15;11.93;;;77.00;1689.60;;;;;;5037199;28;20486;-79
2021/03/09 04:26:41;;;;;;;29.33;13.88;;;77.00;1689.60;;;;;;5037339;28;20025;-79
2021/03/09 04:29:09;;;;;;;25.65;12.48;;;77.00;1689.60;;;;;;5019692;28;20053;-80
2021/03/09 04:31:35;;;;;;;26.73;14.25;;;77.00;1689.60;;;;;;5019099;28;20032;-80
2021/03/09 04:34:01;;;;;;;;;;;77.10;1715.20;;;;;;5019107;28;20044;-79
2021/03/09 04:36:27;;;;;;;26.05;12.18;;;76.90;1715.20;;;;;;5020125;28;19905;-78
2021/03/09 04:38:53;;;;;;;26.25;13.60;;;77.00;1689.60;;;;;;5019110;28;20033;-78
2021/03/09 04:41:19;;;;;;;28.13;14.20;;;77.00;1689.60;;;;;;5019550;28;20470;-79
2021/03/09 04:43:45;;;;;;;22.98;11.48;;;77.00;1664.00;;;;;;5019764;28;20087;-78
2021/03/09 04:46:11;;;;;;;22.70;11.45;;;77.10;1664.00;;;;;;5020467;28;20389;-79
2021/03/09 04:48:37;;;;;;;;;;;77.00;1664.00;;;;;;5020512;28;20215;-80
2021/03/09 04:51:10;;;;;;;25.88;12.30;;;77.00;1689.60;;;;;;5038163;28;19905;-80
2021/03/09 04:53:36;;;;;;;26.40;11.95;;;76.90;1664.00;;;;;;5032505;28;20382;-80
2021/03/09 04:56:02;;;;;;;;;;;76.90;1664.00;;;;;;5019625;28;20033;-79
2021/03/09 04:58:28;;;;;;;77.97;37.60;;;76.80;1689.60;;;;;;5018913;28;19913;-79
2021/03/09 05:00:54;;;;;;;;;;;52.10;1689.60;;;;;;5019197;28;20478;-79
2021/03/09 05:03:20;;;;;;;28.77;13.63;;;52.10;1715.20;;;;;;5019828;28;19909;-81
2021/03/09 05:05:46;;;;;;;46.40;19.17;;;51.90;1740.80;;;;;;5036254;28;20440;-80
2021/03/09 05:08:12;;;;;;;34.30;14.85;;;51.90;1740.80;;;;;;5037283;28;20026;-79
2021/03/09 05:10:37;;;;;;;26.02;13.40;;;51.90;1740.80;;;;;;5020358;28;20033;-80
2021/03/09 05:13:03;;;;;;;;;;;52.00;1740.80;;;;;;5021333;28;20044;-78
2021/03/09 05:15:29;;;;;;;25.33;11.73;;;52.00;1740.80;;;;;;5041234;28;19905;-81
2021/03/09 05:17:55;;;;;;;;;;;52.10;1740.80;;;;;;5021911;28;20115;-79
2021/03/09 05:20:21;;;;;;;26.63;11.98;;;76.80;1715.20;;;;;;5021859;28;20360;-81
2021/03/09 05:22:46;;;;;;;;;;;76.80;1715.20;;;;;;5021496;28;20052;-81
2021/03/09 05:25:14;;;;;;;24.30;11.27;;;76.80;1715.20;;;;;;5021896;28;19912;-79
2021/03/09 05:27:42;;;;;;;19.50;10.70;;;76.80;1715.20;;;;;;5020424;28;20037;-79
2021/03/09 05:30:10;;;;;;;25.23;11.85;;;76.90;1715.20;;;;;;5021611;28;20026;-77
2021/03/09 05:32:36;;;;;;;25.30;11.48;;;76.90;1715.20;;;;;;5018568;28;20034;-80
2021/03/09 05:35:03;;;;;;;20.50;11.00;;;77.00;1715.20;;;;;;5018010;28;20042;-80
2021/03/09 05:37:29;;;;;;;22.92;12.05;;;77.00;1689.60;;;;;;5020259;28;20030;-79
2021/03/09 05:39:55;;;;;;;22.00;12.02;;;77.00;1689.60;;;;;;5019889;28;20046;-80
2021/03/09 05:42:21;;;;;;;28.92;13.95;;;77.00;1715.20;;;;;;5029000;28;20057;-80
2021/03/09 05:44:47;;;;;;;36.33;15.80;;;76.90;1689.60;;;;;;5049784;28;20025;-78
2021/03/09 05:47:13;;;;;;;;;;;76.90;1715.20;;;;;;5050871;28;20029;-79
2021/03/09 05:49:40;;;;;;;46.50;20.92;;;76.90;1715.20;;;;;;5031179;28;19905;-79
2021/03/09 05:52:06;;;;;;;64.13;26.90;;;76.90;1715.20;;;;;;5033143;28;20029;-79
2021/03/09 05:54:32;;;;;;;58.53;26.65;;;77.00;1689.60;;;;;;5030108;28;20094;-79
2021/03/09 05:56:57;;;;;;;56.92;22.25;;;77.10;1689.60;;;;;;5027788;28;20085;-77
2021/03/09 05:59:23;;;;;;;40.20;18.15;;;77.10;1689.60;;;;;;5031382;28;20041;-78
2021/03/09 06:01:50;;;;;;;29.73;14.70;;;77.10;1689.60;;;;;;5032575;28;20028;-79
2021/03/09 06:04:17;;;;;;;26.92;13.98;;;77.00;1689.60;;;;;;5030214;28;20168;-80
2021/03/09 06:06:43;;;;;;;31.05;16.67;;;77.40;1689.60;;;;;;5033100;28;20028;-79
2021/03/09 06:09:38;;;;;;;26.48;14.90;;;77.20;1689.60;;;;;;5059820;28;20111;-78
2021/03/09 06:12:15;;;;;;;26.73;15.25;;;77.10;1664.00;;;;;;5011594;28;20061;-83
2021/03/09 06:15:04;;;;;;;38.17;17.20;;;77.10;1664.00;;;;;;5021863;28;20037;-78
2021/03/09 06:17:30;;;;;;;42.13;19.83;;;77.10;1689.60;;;;;;5040576;28;20504;-78
2021/03/09 06:19:57;;;;;;;45.35;18.23;;;77.10;1664.00;;;;;;5039955;28;20033;-80
2021/03/09 06:22:47;;;;;;;44.15;16.58;;;76.90;1715.20;;;;;;5025613;28;20021;-81
2021/03/09 06:25:16;;;;;;;41.22;17.17;;;52.10;1715.20;;;;;;5046999;28;20041;-84
2021/03/09 06:27:43;;;;;;;44.40;15.32;;;76.80;1715.20;;;;;;5030259;28;20029;-80
2021/03/09 06:30:12;;;;;;;35.13;16.98;;;77.00;1689.60;;;;;;5027064;28;20084;-84
2021/03/09 06:32:43;;;;;;;48.13;21.05;;;76.90;1715.20;;;;;;5049227;28;20029;-85
2021/03/09 06:35:37;;;;;;;34.08;13.90;;;77.20;1689.60;;;;;;5032321;28;20044;-85
2021/03/09 06:38:18;;;;;;;24.08;10.35;;;77.40;1638.40;;;;;;5033077;28;20026;-83
2021/03/09 06:40:46;;;;;;;27.52;11.25;;;77.40;1612.80;;;;;;5049019;28;20022;-81
2021/03/09 06:43:19;;;;;;;29.05;13.27;;;77.20;1638.40;;;;;;5029346;28;20056;-80
2021/03/09 06:45:45;;;;;;;21.95;8.35;;;77.40;1612.80;;;;;;5028972;28;20021;-81
2021/03/09 06:48:21;;;;;;;25.27;7.15;;;77.30;1587.20;;;;;;5026055;28;20124;-82
2021/03/09 06:50:47;;;;;;;11.00;6.05;;;77.30;1587.20;;;;;;5025948;28;20026;-82
2021/03/09 06:53:13;;;;;;;;;;;77.50;1587.20;;;;;;5026024;28;20098;-81
2021/03/09 06:55:38;;;;;;;21.35;8.38;;;77.30;1587.20;;;;;;5023885;28;19918;-79
2021/03/09 06:58:10;;;;;;;;;;;77.40;1612.80;;;;;;5020415;28;20026;-81
2021/03/09 07:00:36;;;;;;;20.33;8.30;;;77.60;1561.60;;;;;;5021720;28;20361;-78
2021/03/09 07:03:02;;;;;;;;;;;77.70;1536.00;;;;;;5023751;28;20060;-79
2021/03/09 07:05:28;;;;;;;23.65;8.88;;;102.50;1510.40;;;;;;5024960;28;19917;-79
2021/03/09 07:07:54;;;;;;;18.90;9.23;;;102.50;1536.00;;;;;;5025449;28;20029;-84
2021/03/09 07:10:20;;;;;;;;;;;102.70;1510.40;;;;;;5028562;28;20391;-79
2021/03/09 07:12:47;;;;;;;22.98;7.85;;;102.50;1510.40;;;;;;5020082;28;19914;-78
2021/03/09 07:15:16;;;;;;;18.20;7.18;;;102.70;1510.40;;;;;;5017420;28;20037;-80
2021/03/09 07:17:42;;;;;;;24.95;8.75;;;102.80;1510.40;;;;;;5016698;28;20029;-79
2021/03/09 07:20:12;;;;;;;21.40;8.02;;;102.70;1536.00;;;;;;5019638;28;20046;-82
2021/03/09 07:22:39;;;;;;;24.23;8.52;;;102.90;1536.00;;;;;;5022652;28;20025;-79
2021/03/09 07:25:18;;;;;;;14.98;6.70;;;103.00;1484.80;;;;;;5023947;28;20033;-80
2021/03/09 07:28:04;;;;;;;14.35;6.40;;;103.20;1484.80;;;;;;5017070;28;20145;-77
2021/03/09 07:30:38;;;;;;;12.23;6.13;;;103.30;1459.20;;;;;;5014092;28;20482;-77
2021/03/09 07:33:04;;;;;;;12.60;5.70;;;128.10;1484.80;;;;;;5018347;28;20256;-77
2021/03/09 07:35:30;;;;;;;9.88;5.95;;;128.20;1484.80;;;;;;5019852;28;20441;-78
2021/03/09 07:37:57;;;;;;;;;;;128.10;1484.80;;;;;;5020416;28;20092;-81
2021/03/09 07:40:31;;;;;;;19.40;8.30;;;128.30;1484.80;;;;;;5021819;28;19917;-78
2021/03/09 07:42:57;;;;;;;11.32;5.65;;;128.40;1433.60;;;;;;5025348;28;20040;-84
2021/03/09 07:45:33;;;;;;;11.88;5.88;;;128.30;1433.60;;;;;;5026287;28;20026;-77
2021/03/09 07:48:02;;;;;;;14.57;6.90;;;128.40;1433.60;;;;;;5019998;28;20030;-77
2021/03/09 07:50:38;;;;;;;18.13;7.10;;;128.50;1408.00;;;;;;5019916;28;20306;-80
2021/03/09 07:53:06;;;;;;;12.23;6.15;;;128.50;1433.60;;;;;;5018911;28;20030;-77
2021/03/09 07:55:33;;;;;;;14.32;5.63;;;128.50;1459.20;;;;;;5018283;28;20041;-78
2021/03/09 07:58:18;;;;;;;21.40;9.27;;;128.40;1459.20;;;;;;5019330;28;20033;-78
2021/03/09 08:00:50;;;;;;;15.63;6.68;;;128.70;1484.80;;;;;;5019332;28;20033;-77
2021/03/09 08:03:23;;;;;;;9.98;5.78;;;128.70;1433.60;;;;;;5018928;28;20041;-78
2021/03/09 08:06:06;;;;;;;11.70;6.00;;;128.80;1433.60;;;;;;5019625;28;20474;-84
2021/03/09 08:08:51;;;;;;;12.32;6.30;;;128.90;1408.00;;;;;;5021842;28;20018;-78
2021/03/09 08:11:19;;;;;;;11.48;5.95;;;128.90;1382.40;;;;;;5024706;28;20010;-77
2021/03/09 08:14:04;;;;;;;13.32;6.72;;;128.90;1382.40;;;;;;5020648;28;20025;-78
2021/03/09 08:16:32;;;;;;;12.82;5.90;;;153.60;1382.40;;;;;;5021764;28;20006;-81
2021/03/09 08:19:00;;;;;;;16.10;6.95;;;153.80;1356.80;;;;;;5022800;28;20044;-77
2021/03/09 08:21:50;;;;;;;12.20;7.38;;;153.70;1356.80;;;;;;5022782;28;20017;-84
2021/03/09 08:24:16;;;;;;;13.93;6.80;;;153.80;1382.40;;;;;;5024826;28;20022;-78
2021/03/09 08:26:44;;;;;;;14.90;6.75;;;153.60;1382.40;;;;;;5021940;28;20064;-77
2021/03/09 08:29:28;;;;;;;12.82;6.57;;;153.70;1382.40;;;;;;5022091;28;20065;-77
2021/03/09 08:32:22;;;;;;;10.73;5.97;;;153.70;1382.40;;;;;;5023983;28;20034;-79
2021/03/09 08:34:52;;;;;;;11.82;6.68;;;153.80;1356.80;;;;;;5024022;28;20042;-78
2021/03/09 08:37:31;;;;;;;13.18;7.05;;;154.00;1382.40;;;;;;5026308;28;20481;-79
2021/03/09 08:40:04;;;;;;;22.80;6.30;;;154.10;1382.40;;;;;;5021898;28;20037;-78
2021/03/09 08:43:02;;;;;;;49.00;27.92;;;154.10;1356.80;;;;;;5024363;28;20497;-77
2021/03/09 08:45:37;;;;;;;;;;;154.30;1331.20;;;;;;5026630;28;20030;-78
2021/03/09 08:48:04;;;;;;;15.23;8.20;;;154.50;1356.80;;;;;;5014547;28;19906;-77
2021/03/09 08:50:37;;;;;;;11.07;8.05;;;154.50;1305.60;;;;;;5018377;28;20022;-78
2021/03/09 08:53:03;;;;;;;13.73;5.68;;;154.50;1305.60;;;;;;5023736;28;20026;-77
2021/03/09 08:55:29;;;;;;;11.63;6.20;;;179.20;1280.00;;;;;;5026524;28;20053;-78
2021/03/09 08:58:00;;;;;;;13.38;6.28;;;154.50;1305.60;;;;;;5022904;28;20393;-83
2021/03/09 09:00:27;;;;;;;12.27;7.15;;;179.20;1305.60;;;;;;5023732;28;20046;-79
2021/03/09 09:02:53;;;;;;;14.05;7.05;;;179.50;1280.00;;;;;;5018956;28;20030;-78
2021/03/09 09:05:19;;;;;;;9.77;5.88;;;179.50;1280.00;;;;;;5013499;28;20088;-80
2021/03/09 09:07:44;;;;;;;;;;;179.50;1305.60;;;;;;5012589;28;20363;-78
2021/03/09 09:10:18;;;;;;;13.00;5.60;;;179.70;1254.40;;;;;;5013408;28;19979;-77
2021/03/09 09:12:49;;;;;;;12.05;5.72;;;179.90;1254.40;;;;;;5012178;28;20121;-79
2021/03/09 09:15:18;;;;;;;11.05;6.53;;;180.00;1228.80;;;;;;5012068;28;20030;-86
2021/03/09 09:17:51;;;;;;;7.88;4.80;;;204.80;1203.20;;;;;;5012366;28;20030;-79
2021/03/09 09:20:37;;;;;;;9.75;4.68;;;180.10;1152.00;;;;;;5015466;28;20481;-86
2021/03/09 09:23:15;;;;;;;9.57;5.30;;;204.90;1152.00;;;;;;5015515;28;20052;-79
2021/03/09 09:25:44;;;;;;;11.73;6.45;;;205.00;1177.60;;;;;;5016429;28;20441;-79
2021/03/09 09:28:33;;;;;;;11.07;6.07;;;205.10;1152.00;;;;;;5015444;28;20065;-80
2021/03/09 09:31:04;;;;;;;10.10;5.63;;;205.30;1177.60;;;;;;5015238;28;20034;-81
2021/03/09 09:33:30;;;;;;;12.63;6.47;;;205.40;1152.00;;;;;;5015235;28;20125;-78
2021/03/09 09:35:57;;;;;;;9.73;5.65;;;205.20;1126.40;;;;;;5015404;28;20540;-77
2021/03/09 09:38:23;;;;;;;10.27;5.85;;;205.30;1152.00;;;;;;5015221;28;20064;-77
2021/03/09 09:40:53;;;;;;;13.93;6.28;;;205.40;1126.40;;;;;;5016262;28;20028;-76
2021/03/09 09:43:24;;;;;;;10.23;5.88;;;205.50;1100.80;;;;;;5013587;28;20133;-77
2021/03/09 09:45:55;;;;;;;9.27;5.90;;;230.40;1100.80;;;;;;5016652;28;20113;-78
2021/03/09 09:48:23;;;;;;;11.25;6.47;;;230.60;1049.60;;;;;;5015168;28;20042;-79
2021/03/09 09:50:51;;;;;;;13.63;7.88;;;230.60;1049.60;;;;;;5015415;28;20038;-78
2021/03/09 09:53:37;;;;;;;14.50;7.95;;;230.60;1100.80;;;;;;5016715;28;20125;-77
2021/03/09 09:56:08;;;;;;;9.77;5.38;;;230.70;1075.20;;;;;;5018527;28;20116;-78
2021/03/09 09:58:57;;;;;;;13.90;6.60;;;230.60;1100.80;;;;;;5018240;28;20034;-80
2021/03/09 10:01:42;;;;;;;14.82;8.85;;;230.60;1075.20;;;;;;5041287;28;20029;-78
2021/03/09 10:04:13;;;;;;;15.48;8.77;;;230.70;1049.60;;;;;;5044332;28;20389;-79
2021/03/09 10:06:56;;;;;;;15.25;8.80;;;230.90;1024.00;;;;;;5044923;28;20048;-78
2021/03/09 10:09:24;;;;;;;94.15;13.07;;;231.20;1024.00;;;;;;5027955;28;20112;-79
2021/03/09 10:11:52;;;;;;;12.63;7.78;;;231.30;998.40;;;;;;5024097;28;20033;-79
2021/03/09 10:14:20;;;;;;;12.10;7.70;;;256.10;972.80;;;;;;5044997;28;20096;-79
2021/03/09 10:16:46;;;;;;;14.70;8.20;;;256.00;972.80;;;;;;5034422;28;20029;-76
2021/03/09 10:19:18;;;;;;;14.55;8.68;;;256.10;947.20;;;;;;5037533;28;20039;-75
2021/03/09 10:21:54;;;;;;;17.77;8.82;;;256.30;947.20;;;;;;5037767;28;20107;-76
2021/03/09 10:24:31;;;;;;;9.82;6.15;;;256.50;921.60;;;;;;5037448;28;20064;-76
2021/03/09 10:26:59;;;;;;;12.80;7.80;;;256.70;947.20;;;;;;5025647;28;20032;-80
2021/03/09 10:29:28;;;;;;;20.08;11.23;;;256.60;921.60;;;;;;5051809;28;20029;-77
2021/03/09 10:32:02;;;;;;;15.32;8.48;;;256.60;921.60;;;;;;5036184;28;20043;-79
2021/03/09 10:34:43;;;;;;;13.45;8.18;;;256.70;947.20;;;;;;5045479;28;20036;-78
2021/03/09 10:37:16;;;;;;;14.30;8.95;;;256.70;921.60;;;;;;5020978;28;20024;-78
2021/03/09 10:40:04;;;;;;;13.45;8.88;;;256.90;870.40;;;;;;5024432;28;20125;-79
2021/03/09 10:42:35;;;;;;;13.25;8.13;;;281.80;921.60;;;;;;4998139;28;20544;-78
2021/03/09 10:45:16;;;;;;;14.20;8.45;;;281.80;870.40;;;;;;4997899;28;20037;-77
2021/03/09 10:47:49;;;;;;;14.48;7.65;;;282.10;896.00;;;;;;5015330;28;20038;-78
2021/03/09 10:50:16;;;;;;;13.20;8.30;;;281.70;896.00;;;;;;4997995;28;20026;-78
2021/03/09 10:52:42;;;;;;;14.35;7.88;;;256.80;896.00;;;;;;4998171;28;20030;-77
2021/03/09 10:55:08;;;;;;;14.98;8.27;;;256.80;896.00;;;;;;4997734;28;20046;-77
2021/03/09 10:57:34;;;;;;;12.43;7.88;;;256.90;870.40;;;;;;4997614;28;20034;-83
2021/03/09 11:00:01;;;;;;;;;;;256.40;921.60;;;;;;4998476;28;20041;-80
2021/03/09 11:02:27;;;;;;;18.20;9.27;;;256.60;870.40;;;;;;4997858;28;19905;-77
2021/03/09 11:04:53;;;;;;;;;;;256.90;896.00;;;;;;4998035;28;20076;-82
2021/03/09 11:07:18;;;;;;;16.38;9.05;;;281.90;896.00;;;;;;5015221;28;19909;-81
2021/03/09 11:09:44;;;;;;;;;;;281.90;870.40;;;;;;4997967;28;20045;-81
2021/03/09 11:12:10;;;;;;;13.75;9.05;;;282.00;844.80;;;;;;4997631;28;20000;-79
2021/03/09 11:14:35;;;;;;;;;;;281.90;870.40;;;;;;4997847;28;20474;-77
2021/03/09 11:17:01;;;;;;;17.05;9.50;;;282.00;844.80;;;;;;5014917;28;19912;-80
2021/03/09 11:19:27;;;;;;;;;;;282.00;921.60;;;;;;4997659;28;20397;-81
2021/03/09 11:21:52;;;;;;;15.48;7.95;;;282.30;870.40;;;;;;4996734;28;19905;-78
2021/03/09 11:24:18;;;;;;;;;;;307.20;870.40;;;;;;4997425;28;20040;-75
2021/03/09 11:26:44;;;;;;;12.98;8.52;;;307.50;896.00;;;;;;5023737;28;19905;-76
2021/03/09 11:29:09;;;;;;;;;;;307.30;844.80;;;;;;5035010;28;20026;-78
2021/03/09 11:31:35;;;;;;;14.20;8.45;;;307.20;844.80;;;;;;5016897;28;19911;-80
2021/03/09 11:34:01;;;;;;;14.00;8.52;;;307.30;870.40;;;;;;5017029;28;20042;-78
2021/03/09 11:36:27;;;;;;;;;;;282.40;793.60;;;;;;5016969;28;20029;-77
2021/03/09 11:38:52;;;;;;;20.27;8.98;;;282.10;870.40;;;;;;5036334;28;19913;-86
2021/03/09 11:41:19;;;;;;;;;;;282.30;793.60;;;;;;5017165;28;20063;-80
2021/03/09 11:43:45;;;;;;;13.00;8.63;;;307.20;896.00;;;;;;5015985;28;19958;-76
2021/03/09 11:46:11;;;;;;;13.75;8.43;;;307.20;844.80;;;;;;5025336;28;20370;-78
2021/03/09 11:48:39;;;;;;;14.45;8.90;;;307.40;844.80;;;;;;5023978;28;20036;-77
2021/03/09 11:51:06;;;;;;;26.25;12.77;;;307.50;793.60;;;;;;5026455;28;20086;-78
2021/03/09 11:53:32;;;;;;;15.38;8.70;;;307.60;844.80;;;;;;5026635;28;20028;-78
2021/03/09 11:55:57;;;;;;;18.23;9.80;;;307.80;819.20;;;;;;5026430;28;20030;-84
2021/03/09 11:58:23;;;;;;;;;;;307.50;819.20;;;;;;5024720;28;20488;-81
2021/03/09 12:00:49;;;;;;;14.80;8.02;;;307.30;819.20;;;;;;5025138;28;20280;-79
2021/03/09 12:03:14;;;;;;;14.57;9.15;;;282.50;793.60;;;;;;5025623;28;20376;-83
2021/03/09 12:05:40;;;;;;;16.63;9.40;;;282.40;844.80;;;;;;5026259;28;20053;-79
2021/03/09 12:08:06;;;;;;;15.95;9.60;;;307.50;844.80;;;;;;5024296;28;20036;-79
2021/03/09 12:10:32;;;;;;;;;;;282.50;819.20;;;;;;5025893;28;20071;-78
2021/03/09 12:12:57;;;;;;;17.10;10.05;;;307.30;844.80;;;;;;5043686;28;19911;-78
2021/03/09 12:15:23;;;;;;;;;;;282.30;844.80;;;;;;5042262;28;20031;-78
2021/03/09 12:17:49;;;;;;;33.45;16.25;;;307.20;844.80;;;;;;5024483;28;19904;-78
2021/03/09 12:20:15;;;;;;;15.73;9.77;;;307.30;819.20;;;;;;5025376;28;20045;-86
2021/03/09 12:22:41;;;;;;;23.52;11.05;;;307.50;844.80;;;;;;5041314;28;20028;-78
2021/03/09 12:25:07;;;;;;;;;;;307.50;819.20;;;;;;5027381;28;20109;-78
2021/03/09 12:27:35;;;;;;;12.80;7.75;;;307.60;793.60;;;;;;5041950;28;19908;-78
2021/03/09 12:30:05;;;;;;;14.25;8.68;;;307.60;819.20;;;;;;5042079;28;20033;-76
2021/03/09 12:32:31;;;;;;;13.75;8.43;;;307.50;819.20;;;;;;5020893;28;20124;-78
2021/03/09 12:34:57;;;;;;;14.90;9.20;;;307.50;793.60;;;;;;5043765;28;20548;-75